sensor_id;sensor_type;location;lat;lon;timestamp;P1;durP1;ratioP1;P2;durP2;ratioP2
40588;SDS011;26297;49.450;6.640;2023-03-31T04:02:56;1.33;;;0.60;;
40588;SDS011;26297;49.450;6.640;2023-03-31T04:09:29;3.25;;;0.70;;
40588;SDS011;26297;49.450;6.640;2023-03-31T04:13:06;2.90;;;0.68;;
40588;SDS011;26297;49.450;6.640;2023-03-31T04:16:09;2.75;;;0.50;;
40588;SDS011;26297;49.450;6.640;2023-03-31T04:19:18;3.03;;;0.90;;
40588;SDS011;26297;49.450;6.640;2023-03-31T04:22:26;2.05;;;0.80;;
40588;SDS011;26297;49.450;6.640;2023-03-31T04:26:10;3.58;;;0.80;;
40588;SDS011;26297;49.450;6.640;2023-03-31T04:29:16;4.20;;;0.98;;
40588;SDS011;26297;49.450;6.640;2023-03-31T04:32:28;4.00;;;0.82;;
40588;SDS011;26297;49.450;6.640;2023-03-31T04:35:38;3.58;;;0.95;;
40588;SDS011;26297;49.450;6.640;2023-03-31T04:39:15;2.22;;;0.68;;
40588;SDS011;26297;49.450;6.640;2023-03-31T04:42:28;2.42;;;1.02;;
40588;SDS011;26297;49.450;6.640;2023-03-31T04:45:37;1.77;;;1.05;;
40588;SDS011;26297;49.450;6.640;2023-03-31T04:49:07;2.55;;;1.10;;
40588;SDS011;26297;49.450;6.640;2023-03-31T04:52:48;1.63;;;0.77;;
40588;SDS011;26297;49.450;6.640;2023-03-31T04:56:27;2.75;;;1.15;;
40588;SDS011;26297;49.450;6.640;2023-03-31T04:59:34;5.60;;;1.55;;
40588;SDS011;26297;49.450;6.640;2023-03-31T05:02:51;2.95;;;0.88;;
40588;SDS011;26297;49.450;6.640;2023-03-31T05:06:10;4.05;;;1.50;;
40588;SDS011;26297;49.450;6.640;2023-03-31T05:09:22;3.33;;;1.40;;
40588;SDS011;26297;49.450;6.640;2023-03-31T05:12:43;6.05;;;2.33;;
40588;SDS011;26297;49.450;6.640;2023-03-31T05:16:03;6.80;;;2.00;;
40588;SDS011;26297;49.450;6.640;2023-03-31T05:19:16;6.45;;;1.83;;
40588;SDS011;26297;49.450;6.640;2023-03-31T05:22:42;4.05;;;1.17;;
40588;SDS011;26297;49.450;6.640;2023-03-31T05:25:48;2.90;;;1.40;;
40588;SDS011;26297;49.450;6.640;2023-03-31T05:29:00;2.88;;;1.35;;
40588;SDS011;26297;49.450;6.640;2023-03-31T05:32:13;2.35;;;1.50;;
40588;SDS011;26297;49.450;6.640;2023-03-31T05:35:37;3.60;;;1.90;;
40588;SDS011;26297;49.450;6.640;2023-03-31T05:38:42;4.13;;;1.85;;
40588;SDS011;26297;49.450;6.640;2023-03-31T05:41:47;3.10;;;1.90;;
40588;SDS011;26297;49.450;6.640;2023-03-31T05:45:07;4.10;;;1.92;;
40588;SDS011;26297;49.450;6.640;2023-03-31T05:48:14;3.80;;;1.50;;
40588;SDS011;26297;49.450;6.640;2023-03-31T05:51:36;4.65;;;1.63;;
40588;SDS011;26297;49.450;6.640;2023-03-31T05:58:28;4.53;;;1.50;;
40588;SDS011;26297;49.450;6.640;2023-03-31T06:01:43;2.42;;;1.50;;
40588;SDS011;26297;49.450;6.640;2023-03-31T06:08:36;2.70;;;1.60;;
40588;SDS011;26297;49.450;6.640;2023-03-31T06:12:14;6.30;;;1.98;;
40588;SDS011;26297;49.450;6.640;2023-03-31T06:15:27;5.05;;;1.70;;
40588;SDS011;26297;49.450;6.640;2023-03-31T06:18:32;5.20;;;1.80;;
40588;SDS011;26297;49.450;6.640;2023-03-31T06:21:55;5.50;;;1.88;;
40588;SDS011;26297;49.450;6.640;2023-03-31T06:24:59;4.35;;;2.15;;
40588;SDS011;26297;49.450;6.640;2023-03-31T06:28:03;2.60;;;1.83;;
40588;SDS011;26297;49.450;6.640;2023-03-31T06:31:15;3.17;;;1.50;;
40588;SDS011;26297;49.450;6.640;2023-03-31T06:37:16;6.00;;;2.15;;
40588;SDS011;26297;49.450;6.640;2023-03-31T06:40:24;4.57;;;1.92;;
40588;SDS011;26297;49.450;6.640;2023-03-31T06:43:39;4.00;;;2.08;;
40588;SDS011;26297;49.450;6.640;2023-03-31T06:46:52;4.57;;;1.75;;
40588;SDS011;26297;49.450;6.640;2023-03-31T06:50:07;5.47;;;1.85;;
40588;SDS011;26297;49.450;6.640;2023-03-31T06:53:14;10.88;;;2.03;;
40588;SDS011;26297;49.450;6.640;2023-03-31T06:56:40;6.30;;;2.20;;
40588;SDS011;26297;49.450;6.640;2023-03-31T06:59:56;4.45;;;1.85;;
40588;SDS011;26297;49.450;6.640;2023-03-31T07:03:00;3.13;;;1.45;;
40588;SDS011;26297;49.450;6.640;2023-03-31T07:06:05;7.18;;;1.90;;
40588;SDS011;26297;49.450;6.640;2023-03-31T07:09:37;3.03;;;2.10;;
40588;SDS011;26297;49.450;6.640;2023-03-31T07:17:00;7.10;;;1.65;;
40588;SDS011;26297;49.450;6.640;2023-03-31T07:20:32;7.47;;;2.33;;
40588;SDS011;26297;49.450;6.640;2023-03-31T07:23:43;9.85;;;2.10;;
40588;SDS011;26297;49.450;6.640;2023-03-31T07:27:28;1.70;;;1.20;;
40588;SDS011;26297;49.450;6.640;2023-03-31T07:30:54;7.32;;;1.80;;
40588;SDS011;26297;49.450;6.640;2023-03-31T07:34:13;5.70;;;2.33;;
40588;SDS011;26297;49.450;6.640;2023-03-31T07:37:27;5.05;;;1.60;;
40588;SDS011;26297;49.450;6.640;2023-03-31T07:41:02;7.30;;;1.95;;
40588;SDS011;26297;49.450;6.640;2023-03-31T07:44:14;7.32;;;1.45;;
40588;SDS011;26297;49.450;6.640;2023-03-31T07:51:45;6.90;;;2.85;;
40588;SDS011;26297;49.450;6.640;2023-03-31T07:55:47;3.92;;;1.40;;
40588;SDS011;26297;49.450;6.640;2023-03-31T07:58:53;4.75;;;1.67;;
40588;SDS011;26297;49.450;6.640;2023-03-31T08:02:00;10.18;;;1.92;;
40588;SDS011;26297;49.450;6.640;2023-03-31T08:05:06;5.65;;;2.22;;
40588;SDS011;26297;49.450;6.640;2023-03-31T08:08:10;7.60;;;1.92;;
40588;SDS011;26297;49.450;6.640;2023-03-31T08:11:14;7.63;;;1.85;;
40588;SDS011;26297;49.450;6.640;2023-03-31T08:14:22;9.63;;;2.03;;
40588;SDS011;26297;49.450;6.640;2023-03-31T08:17:26;13.32;;;2.88;;
40588;SDS011;26297;49.450;6.640;2023-03-31T08:20:30;8.20;;;1.95;;
40588;SDS011;26297;49.450;6.640;2023-03-31T08:23:34;7.15;;;1.75;;
40588;SDS011;26297;49.450;6.640;2023-03-31T08:26:39;5.95;;;1.40;;
40588;SDS011;26297;49.450;6.640;2023-03-31T08:29:43;4.85;;;1.55;;
40588;SDS011;26297;49.450;6.640;2023-03-31T08:32:46;6.13;;;1.60;;
40588;SDS011;26297;49.450;6.640;2023-03-31T08:35:52;3.55;;;1.13;;
40588;SDS011;26297;49.450;6.640;2023-03-31T08:38:58;6.07;;;1.13;;
40588;SDS011;26297;49.450;6.640;2023-03-31T08:42:16;8.85;;;1.88;;
40588;SDS011;26297;49.450;6.640;2023-03-31T08:45:43;2.72;;;0.75;;
40588;SDS011;26297;49.450;6.640;2023-03-31T08:48:50;5.85;;;1.30;;
40588;SDS011;26297;49.450;6.640;2023-03-31T08:51:57;8.77;;;1.08;;
40588;SDS011;26297;49.450;6.640;2023-03-31T08:55:04;2.15;;;0.82;;
40588;SDS011;26297;49.450;6.640;2023-03-31T08:58:31;7.00;;;1.20;;
40588;SDS011;26297;49.450;6.640;2023-03-31T09:02:19;10.18;;;1.90;;
40588;SDS011;26297;49.450;6.640;2023-03-31T09:08:26;9.32;;;2.80;;
40588;SDS011;26297;49.450;6.640;2023-03-31T09:11:44;9.00;;;1.67;;
40588;SDS011;26297;49.450;6.640;2023-03-31T09:17:59;9.02;;;1.48;;
40588;SDS011;26297;49.450;6.640;2023-03-31T09:24:22;8.18;;;2.00;;
40588;SDS011;26297;49.450;6.640;2023-03-31T09:27:34;13.48;;;3.40;;
40588;SDS011;26297;49.450;6.640;2023-03-31T09:30:42;10.43;;;1.85;;
40588;SDS011;26297;49.450;6.640;2023-03-31T09:33:51;6.88;;;1.70;;
40588;SDS011;26297;49.450;6.640;2023-03-31T09:37:00;5.35;;;1.20;;
40588;SDS011;26297;49.450;6.640;2023-03-31T09:40:03;6.15;;;1.60;;
40588;SDS011;26297;49.450;6.640;2023-03-31T09:43:18;3.47;;;1.55;;
40588;SDS011;26297;49.450;6.640;2023-03-31T09:46:34;8.32;;;1.70;;
40588;SDS011;26297;49.450;6.640;2023-03-31T09:49:40;6.00;;;1.05;;
40588;SDS011;26297;49.450;6.640;2023-03-31T09:53:11;4.50;;;0.77;;
40588;SDS011;26297;49.450;6.640;2023-03-31T09:57:03;4.72;;;1.50;;
40588;SDS011;26297;49.450;6.640;2023-03-31T09:59:53;8.02;;;1.65;;
40588;SDS011;26297;49.450;6.640;2023-03-31T10:03:51;10.93;;;1.98;;
40588;SDS011;26297;49.450;6.640;2023-03-31T10:07:03;5.43;;;1.50;;
40588;SDS011;26297;49.450;6.640;2023-03-31T10:10:27;6.93;;;1.40;;
40588;SDS011;26297;49.450;6.640;2023-03-31T10:23:38;7.68;;;2.00;;
40588;SDS011;26297;49.450;6.640;2023-03-31T10:27:04;3.25;;;0.60;;
40588;SDS011;26297;49.450;6.640;2023-03-31T10:30:20;6.97;;;1.90;;
40588;SDS011;26297;49.450;6.640;2023-03-31T10:39:14;4.23;;;1.20;;
40588;SDS011;26297;49.450;6.640;2023-03-31T10:42:46;4.47;;;1.08;;
40588;SDS011;26297;49.450;6.640;2023-03-31T10:46:05;3.95;;;1.13;;
40588;SDS011;26297;49.450;6.640;2023-03-31T10:49:43;4.20;;;1.33;;
40588;SDS011;26297;49.450;6.640;2023-03-31T10:52:44;1.45;;;0.20;;
40588;SDS011;26297;49.450;6.640;2023-03-31T11:17:15;6.50;;;1.20;;
40588;SDS011;26297;49.450;6.640;2023-03-31T11:55:39;3.07;;;1.00;;
40588;SDS011;26297;49.450;6.640;2023-03-31T12:29:21;3.95;;;0.70;;
40588;SDS011;26297;49.450;6.640;2023-03-31T13:17:27;6.25;;;1.48;;
40588;SDS011;26297;49.450;6.640;2023-03-31T13:20:41;7.05;;;1.30;;
40588;SDS011;26297;49.450;6.640;2023-03-31T13:23:50;2.63;;;0.82;;
40588;SDS011;26297;49.450;6.640;2023-03-31T13:29:52;4.93;;;0.97;;
40588;SDS011;26297;49.450;6.640;2023-03-31T13:33:18;3.95;;;1.10;;
40588;SDS011;26297;49.450;6.640;2023-03-31T13:58:50;3.78;;;0.70;;
40588;SDS011;26297;49.450;6.640;2023-03-31T14:09:21;6.05;;;1.25;;
40588;SDS011;26297;49.450;6.640;2023-03-31T14:12:34;5.78;;;1.45;;
40588;SDS011;26297;49.450;6.640;2023-03-31T14:19:13;7.15;;;1.60;;
40588;SDS011;26297;49.450;6.640;2023-03-31T14:32:39;6.15;;;0.80;;
40588;SDS011;26297;49.450;6.640;2023-03-31T14:36:11;4.25;;;0.98;;
40588;SDS011;26297;49.450;6.640;2023-03-31T14:39:37;2.80;;;0.85;;
40588;SDS011;26297;49.450;6.640;2023-03-31T14:42:52;4.68;;;0.98;;
40588;SDS011;26297;49.450;6.640;2023-03-31T14:46:06;3.22;;;0.90;;
40588;SDS011;26297;49.450;6.640;2023-03-31T14:49:14;4.40;;;1.13;;
40588;SDS011;26297;49.450;6.640;2023-03-31T14:52:28;4.60;;;0.77;;
40588;SDS011;26297;49.450;6.640;2023-03-31T14:55:33;5.57;;;1.02;;
40588;SDS011;26297;49.450;6.640;2023-03-31T14:58:41;6.25;;;0.95;;
40588;SDS011;26297;49.450;6.640;2023-03-31T19:29:35;4.63;;;0.65;;
40588;SDS011;26297;49.450;6.640;2023-03-31T19:40:11;1.65;;;0.70;;
40588;SDS011;26297;49.450;6.640;2023-03-31T19:43:17;2.53;;;0.55;;
40588;SDS011;26297;49.450;6.640;2023-03-31T19:46:42;3.45;;;0.90;;
40588;SDS011;26297;49.450;6.640;2023-03-31T20:15:59;4.60;;;0.67;;
40588;SDS011;26297;49.450;6.640;2023-03-31T20:19:16;2.42;;;0.52;;
40588;SDS011;26297;49.450;6.640;2023-03-31T20:22:20;1.77;;;0.60;;
40588;SDS011;26297;49.450;6.640;2023-03-31T20:25:24;2.20;;;0.50;;
40588;SDS011;26297;49.450;6.640;2023-03-31T20:28:28;1.52;;;0.70;;
40588;SDS011;26297;49.450;6.640;2023-03-31T20:31:34;2.05;;;0.30;;
40588;SDS011;26297;49.450;6.640;2023-03-31T20:34:39;3.33;;;0.40;;
40588;SDS011;26297;49.450;6.640;2023-03-31T20:37:44;2.55;;;0.65;;
40588;SDS011;26297;49.450;6.640;2023-03-31T20:55:47;3.92;;;0.60;;
40588;SDS011;26297;49.450;6.640;2023-03-31T20:59:05;1.30;;;0.45;;
40588;SDS011;26297;49.450;6.640;2023-03-31T21:02:14;1.92;;;0.57;;
40588;SDS011;26297;49.450;6.640;2023-03-31T21:05:30;4.05;;;0.75;;
40588;SDS011;26297;49.450;6.640;2023-03-31T21:08:36;3.45;;;0.68;;
40588;SDS011;26297;49.450;6.640;2023-03-31T21:11:41;1.00;;;0.25;;
40588;SDS011;26297;49.450;6.640;2023-03-31T21:17:47;3.50;;;0.40;;
40588;SDS011;26297;49.450;6.640;2023-03-31T21:20:51;1.15;;;0.40;;
40588;SDS011;26297;49.450;6.640;2023-03-31T21:23:56;2.85;;;0.40;;
40588;SDS011;26297;49.450;6.640;2023-03-31T21:27:00;5.95;;;0.68;;
40588;SDS011;26297;49.450;6.640;2023-03-31T21:30:03;0.25;;;0.25;;
40588;SDS011;26297;49.450;6.640;2023-03-31T21:33:07;2.53;;;0.50;;
40588;SDS011;26297;49.450;6.640;2023-03-31T21:36:11;1.95;;;0.43;;
40588;SDS011;26297;49.450;6.640;2023-03-31T21:39:18;0.80;;;0.40;;
40588;SDS011;26297;49.450;6.640;2023-03-31T21:42:21;1.95;;;0.55;;
40588;SDS011;26297;49.450;6.640;2023-03-31T21:45:25;2.10;;;0.57;;
40588;SDS011;26297;49.450;6.640;2023-03-31T21:48:29;2.10;;;0.45;;
40588;SDS011;26297;49.450;6.640;2023-03-31T21:51:32;1.00;;;0.30;;
40588;SDS011;26297;49.450;6.640;2023-03-31T21:54:35;3.03;;;0.43;;
40588;SDS011;26297;49.450;6.640;2023-03-31T21:57:38;2.80;;;0.40;;
40588;SDS011;26297;49.450;6.640;2023-03-31T22:00:42;1.60;;;0.40;;
40588;SDS011;26297;49.450;6.640;2023-03-31T22:03:46;0.82;;;0.30;;
40588;SDS011;26297;49.450;6.640;2023-03-31T22:06:50;0.38;;;0.30;;
40588;SDS011;26297;49.450;6.640;2023-03-31T22:09:53;3.05;;;0.40;;
40588;SDS011;26297;49.450;6.640;2023-03-31T22:12:57;1.05;;;0.55;;
40588;SDS011;26297;49.450;6.640;2023-03-31T22:16:00;2.55;;;0.80;;
40588;SDS011;26297;49.450;6.640;2023-03-31T22:19:03;2.08;;;0.60;;
40588;SDS011;26297;49.450;6.640;2023-03-31T22:22:08;2.30;;;0.47;;
40588;SDS011;26297;49.450;6.640;2023-03-31T22:25:12;4.13;;;0.57;;
40588;SDS011;26297;49.450;6.640;2023-03-31T22:28:15;2.40;;;0.50;;
40588;SDS011;26297;49.450;6.640;2023-03-31T22:31:19;3.70;;;0.52;;
40588;SDS011;26297;49.450;6.640;2023-03-31T22:34:22;1.20;;;0.40;;
40588;SDS011;26297;49.450;6.640;2023-03-31T22:37:31;2.38;;;0.60;;
40588;SDS011;26297;49.450;6.640;2023-03-31T22:40:57;1.58;;;0.30;;
40588;SDS011;26297;49.450;6.640;2023-03-31T22:44:27;2.05;;;0.30;;
40588;SDS011;26297;49.450;6.640;2023-03-31T22:48:08;1.15;;;0.20;;
40588;SDS011;26297;49.450;6.640;2023-03-31T22:51:21;1.92;;;0.50;;
40588;SDS011;26297;49.450;6.640;2023-03-31T22:55:04;1.33;;;0.40;;
40588;SDS011;26297;49.450;6.640;2023-03-31T22:58:20;2.63;;;0.47;;
40588;SDS011;26297;49.450;6.640;2023-03-31T23:02:12;1.95;;;0.25;;
40588;SDS011;26297;49.450;6.640;2023-03-31T23:05:44;0.40;;;0.20;;
40588;SDS011;26297;49.450;6.640;2023-03-31T23:09:11;0.88;;;0.43;;
40588;SDS011;26297;49.450;6.640;2023-03-31T23:12:34;2.05;;;0.70;;
40588;SDS011;26297;49.450;6.640;2023-03-31T23:15:44;1.27;;;0.50;;
40588;SDS011;26297;49.450;6.640;2023-03-31T23:19:08;1.88;;;0.25;;
40588;SDS011;26297;49.450;6.640;2023-03-31T23:22:45;1.58;;;0.50;;
40588;SDS011;26297;49.450;6.640;2023-03-31T23:26:02;2.88;;;0.90;;
40588;SDS011;26297;49.450;6.640;2023-03-31T23:29:18;0.73;;;0.45;;
40588;SDS011;26297;49.450;6.640;2023-03-31T23:32:37;1.92;;;0.50;;
40588;SDS011;26297;49.450;6.640;2023-03-31T23:36:07;3.77;;;0.47;;
40588;SDS011;26297;49.450;6.640;2023-03-31T23:39:56;1.02;;;0.30;;
40588;SDS011;26297;49.450;6.640;2023-03-31T23:47:13;2.05;;;0.52;;
40588;SDS011;26297;49.450;6.640;2023-03-31T23:54:02;3.10;;;0.47;;
40588;SDS011;26297;49.450;6.640;2023-03-31T23:57:24;1.15;;;0.30;;
